Terminal Aerodrome Forecast
Issued by NWS

Home | Current Version | Previous Version | Graphics & Text | Print | Product List | Glossary On
Versions: 1 2 3 4 5 6 7 8 9 10 11 12 13 14 15 16 17 18
000
FTUS43 KTOP 191700
TAFFOE
TAF
KFOE 191723Z 1918/2018 33015G22KT P6SM SCT040
     FM200000 VRB04KT P6SM FEW035=

USA.gov is the U.S. government's official web portal to all federal, state and local government web resources and services.